Terminal Aerodrome Forecast
Issued by NWS

Home | Current Version | Previous Version | Text Only | Print | Product List | Glossary Off
Versions: 1 2 3 4 5 6 7 8 9 10 11 12 13 14 15

000
FTUS43 KMPX 241120
TAFRWF
TAF
KRWF 241120Z 2412/2512 15016G22KT P6SM OVC070
     FM241900 14014G21KT P6SM OVC025
     FM250200 11013KT 6SM BR OVC014
     FM250700 09008KT 5SM BR OVC009=

USA.gov is the U.S. government's official web portal to all federal, state and local government web resources and services.